sensor_id;sensor_type;location;lat;lon;timestamp;noise_LAeq;noise_LA_min;noise_LA_max;noise_LA01;noise_LA95
58251;Laerm;51449;51.676;5.812;2023-01-28T00:33:48;51.47;28.26;68.06;;
58251;Laerm;51449;51.676;5.812;2023-01-28T00:36:13;55.23;29.45;69.45;;
58251;Laerm;51449;51.676;5.812;2023-01-28T00:38:40;51.34;28.36;69.69;;
58251;Laerm;51449;51.676;5.812;2023-01-28T00:41:16;47.76;28.08;65.09;;
58251;Laerm;51449;51.676;5.812;2023-01-28T00:43:42;50.11;28.71;66.01;;
58251;Laerm;51449;51.676;5.812;2023-01-28T00:46:19;51.39;28.45;64.98;;
58251;Laerm;51449;51.676;5.812;2023-01-28T00:52:03;37.85;27.91;65.09;;
58251;Laerm;51449;51.676;5.812;2023-01-28T00:54:50;58.14;31.66;74.20;;
58251;Laerm;51449;51.676;5.812;2023-01-28T00:57:16;54.95;30.20;68.14;;
58251;Laerm;51449;51.676;5.812;2023-01-28T00:59:43;56.76;31.56;69.90;;
58251;Laerm;51449;51.676;5.812;2023-01-28T01:02:31;47.21;28.25;63.77;;
58251;Laerm;51449;51.676;5.812;2023-01-28T01:04:59;49.64;28.76;66.26;;
58251;Laerm;51449;51.676;5.812;2023-01-28T01:07:37;53.14;27.65;68.45;;
58251;Laerm;51449;51.676;5.812;2023-01-28T01:10:05;47.28;27.82;65.47;;
58251;Laerm;51449;51.676;5.812;2023-01-28T01:12:33;30.46;27.87;46.22;;
58251;Laerm;51449;51.676;5.812;2023-01-28T01:17:38;57.14;30.63;71.51;;
58251;Laerm;51449;51.676;5.812;2023-01-28T01:20:16;34.88;27.88;52.02;;
58251;Laerm;51449;51.676;5.812;2023-01-28T01:22:47;53.59;27.94;69.35;;
58251;Laerm;51449;51.676;5.812;2023-01-28T01:25:17;53.75;28.39;67.05;;
58251;Laerm;51449;51.676;5.812;2023-01-28T01:28:09;30.96;27.76;46.59;;
58251;Laerm;51449;51.676;5.812;2023-01-28T01:30:39;50.08;27.56;68.43;;
58251;Laerm;51449;51.676;5.812;2023-01-28T01:33:12;31.87;27.97;46.16;;
58251;Laerm;51449;51.676;5.812;2023-01-28T01:35:42;50.47;28.58;68.58;;
58251;Laerm;51449;51.676;5.812;2023-01-28T01:38:17;53.78;28.51;71.30;;
58251;Laerm;51449;51.676;5.812;2023-01-28T01:41:04;45.35;28.12;61.62;;
58251;Laerm;51449;51.676;5.812;2023-01-28T01:43:58;50.37;28.06;67.94;;
58251;Laerm;51449;51.676;5.812;2023-01-28T01:46:49;30.66;27.38;48.93;;
58251;Laerm;51449;51.676;5.812;2023-01-28T01:49:37;43.92;28.08;61.50;;
58251;Laerm;51449;51.676;5.812;2023-01-28T01:52:09;33.97;28.07;53.29;;
58251;Laerm;51449;51.676;5.812;2023-01-28T01:54:46;46.62;28.19;64.98;;
58251;Laerm;51449;51.676;5.812;2023-01-28T01:57:24;51.14;28.42;69.66;;
58251;Laerm;51449;51.676;5.812;2023-01-28T01:59:53;42.45;28.00;61.63;;
58251;Laerm;51449;51.676;5.812;2023-01-28T02:02:23;52.46;28.57;69.15;;
58251;Laerm;51449;51.676;5.812;2023-01-28T02:04:50;30.51;28.09;45.34;;
58251;Laerm;51449;51.676;5.812;2023-01-28T02:07:21;56.75;28.09;72.91;;
58251;Laerm;51449;51.676;5.812;2023-01-28T02:09:51;57.40;28.44;71.48;;
58251;Laerm;51449;51.676;5.812;2023-01-28T02:12:39;30.39;27.70;46.51;;
58251;Laerm;51449;51.676;5.812;2023-01-28T02:15:15;54.98;28.09;70.08;;
58251;Laerm;51449;51.676;5.812;2023-01-28T02:17:42;49.53;28.33;65.95;;
58251;Laerm;51449;51.676;5.812;2023-01-28T02:20:34;45.52;28.53;63.30;;
58251;Laerm;51449;51.676;5.812;2023-01-28T02:29:47;47.45;27.48;64.68;;
58251;Laerm;51449;51.676;5.812;2023-01-28T02:32:42;45.77;28.12;64.74;;
58251;Laerm;51449;51.676;5.812;2023-01-28T02:35:55;55.63;28.39;70.48;;
58251;Laerm;51449;51.676;5.812;2023-01-28T02:38:32;49.73;29.71;64.30;;
58251;Laerm;51449;51.676;5.812;2023-01-28T02:41:10;45.78;27.47;63.82;;
58251;Laerm;51449;51.676;5.812;2023-01-28T02:43:39;30.68;27.65;45.86;;
58251;Laerm;51449;51.676;5.812;2023-01-28T02:46:38;57.61;27.94;72.59;;
58251;Laerm;51449;51.676;5.812;2023-01-28T02:49:38;34.00;28.14;48.33;;
58251;Laerm;51449;51.676;5.812;2023-01-28T02:55:50;54.83;27.41;72.99;;
58251;Laerm;51449;51.676;5.812;2023-01-28T02:58:39;51.19;28.00;69.85;;
58251;Laerm;51449;51.676;5.812;2023-01-28T03:01:31;55.56;28.98;69.88;;
58251;Laerm;51449;51.676;5.812;2023-01-28T03:04:25;52.81;27.99;68.78;;
58251;Laerm;51449;51.676;5.812;2023-01-28T03:06:59;49.97;27.44;67.60;;
58251;Laerm;51449;51.676;5.812;2023-01-28T03:09:27;53.46;28.32;68.43;;
58251;Laerm;51449;51.676;5.812;2023-01-28T03:12:11;53.04;28.29;68.69;;
58251;Laerm;51449;51.676;5.812;2023-01-28T03:15:03;48.58;27.31;66.84;;
58251;Laerm;51449;51.676;5.812;2023-01-28T03:18:49;55.39;28.34;72.70;;
58251;Laerm;51449;51.676;5.812;2023-01-28T03:21:51;31.50;27.34;50.06;;
58251;Laerm;51449;51.676;5.812;2023-01-28T03:24:50;47.79;27.91;67.03;;
58251;Laerm;51449;51.676;5.812;2023-01-28T04:31:54;54.53;28.19;68.63;;
58251;Laerm;51449;51.676;5.812;2023-01-28T04:34:54;54.67;27.84;73.14;;
58251;Laerm;51449;51.676;5.812;2023-01-28T04:37:50;58.77;30.37;74.21;;
58251;Laerm;51449;51.676;5.812;2023-01-28T04:40:43;48.32;28.25;64.93;;
58251;Laerm;51449;51.676;5.812;2023-01-28T04:43:38;58.04;29.20;71.57;;
58251;Laerm;51449;51.676;5.812;2023-01-28T04:46:25;49.06;27.43;66.06;;
58251;Laerm;51449;51.676;5.812;2023-01-28T05:00:17;51.08;27.42;67.12;;
58251;Laerm;51449;51.676;5.812;2023-01-28T05:03:30;46.07;27.47;64.74;;
58251;Laerm;51449;51.676;5.812;2023-01-28T05:06:01;57.05;28.21;74.12;;
58251;Laerm;51449;51.676;5.812;2023-01-28T05:08:47;51.90;27.85;68.66;;
58251;Laerm;51449;51.676;5.812;2023-01-28T05:11:16;52.61;27.49;67.21;;
58251;Laerm;51449;51.676;5.812;2023-01-28T05:13:48;51.40;29.56;69.00;;
58251;Laerm;51449;51.676;5.812;2023-01-28T05:16:15;59.86;27.69;73.38;;
58251;Laerm;51449;51.676;5.812;2023-01-28T05:18:39;56.74;30.27;74.05;;
58251;Laerm;51449;51.676;5.812;2023-01-28T05:45:39;55.30;29.25;69.57;;
58251;Laerm;51449;51.676;5.812;2023-01-28T05:48:14;57.15;31.86;71.71;;
58251;Laerm;51449;51.676;5.812;2023-01-28T05:50:55;58.22;30.79;71.72;;
58251;Laerm;51449;51.676;5.812;2023-01-28T05:53:26;73.79;32.04;87.82;;
58251;Laerm;51449;51.676;5.812;2023-01-28T05:55:50;54.63;30.17;68.98;;
58251;Laerm;51449;51.676;5.812;2023-01-28T05:58:13;54.81;29.55;67.92;;
58251;Laerm;51449;51.676;5.812;2023-01-28T06:00:36;58.96;33.07;71.81;;
58251;Laerm;51449;51.676;5.812;2023-01-28T06:02:58;60.17;31.76;76.78;;
58251;Laerm;51449;51.676;5.812;2023-01-28T06:05:20;58.89;33.63;70.95;;
58251;Laerm;51449;51.676;5.812;2023-01-28T06:07:46;57.99;30.65;71.75;;
58251;Laerm;51449;51.676;5.812;2023-01-28T06:10:09;54.85;30.24;69.35;;
58251;Laerm;51449;51.676;5.812;2023-01-28T06:12:32;60.78;31.75;73.96;;
58251;Laerm;51449;51.676;5.812;2023-01-28T06:15:23;58.70;34.07;70.94;;
58251;Laerm;51449;51.676;5.812;2023-01-28T06:17:53;58.80;31.50;72.17;;
58251;Laerm;51449;51.676;5.812;2023-01-28T06:20:23;62.46;35.46;75.16;;
58251;Laerm;51449;51.676;5.812;2023-01-28T06:22:45;57.30;30.35;71.19;;
58251;Laerm;51449;51.676;5.812;2023-01-28T06:25:07;57.77;30.00;70.48;;
58251;Laerm;51449;51.676;5.812;2023-01-28T06:27:30;62.22;38.19;73.57;;
58251;Laerm;51449;51.676;5.812;2023-01-28T06:29:52;56.20;34.11;68.16;;
58251;Laerm;51449;51.676;5.812;2023-01-28T06:32:14;59.14;30.77;71.54;;
58251;Laerm;51449;51.676;5.812;2023-01-28T06:34:36;56.39;31.42;70.79;;
58251;Laerm;51449;51.676;5.812;2023-01-28T06:36:58;61.31;31.01;75.56;;
58251;Laerm;51449;51.676;5.812;2023-01-28T06:39:20;58.55;33.44;70.40;;
58251;Laerm;51449;51.676;5.812;2023-01-28T06:41:42;57.90;30.37;74.63;;
58251;Laerm;51449;51.676;5.812;2023-01-28T06:44:04;59.97;35.31;72.30;;
58251;Laerm;51449;51.676;5.812;2023-01-28T06:46:26;61.77;32.10;72.42;;
58251;Laerm;51449;51.676;5.812;2023-01-28T06:48:48;58.69;33.89;69.83;;
58251;Laerm;51449;51.676;5.812;2023-01-28T06:51:10;61.42;35.05;71.36;;
58251;Laerm;51449;51.676;5.812;2023-01-28T06:53:31;62.77;37.21;76.25;;
58251;Laerm;51449;51.676;5.812;2023-01-28T06:55:53;61.05;34.24;74.20;;
58251;Laerm;51449;51.676;5.812;2023-01-28T06:58:15;53.36;32.69;67.39;;
58251;Laerm;51449;51.676;5.812;2023-01-28T07:00:37;58.11;32.60;72.51;;
58251;Laerm;51449;51.676;5.812;2023-01-28T07:02:58;65.09;34.48;80.43;;
58251;Laerm;51449;51.676;5.812;2023-01-28T07:05:20;60.05;33.15;78.08;;
58251;Laerm;51449;51.676;5.812;2023-01-28T07:07:42;61.91;33.79;73.51;;
58251;Laerm;51449;51.676;5.812;2023-01-28T07:10:04;61.96;35.16;72.74;;
58251;Laerm;51449;51.676;5.812;2023-01-28T07:12:26;59.43;35.34;70.31;;
58251;Laerm;51449;51.676;5.812;2023-01-28T07:14:48;62.22;34.71;76.36;;
58251;Laerm;51449;51.676;5.812;2023-01-28T07:17:09;59.14;35.50;69.32;;
58251;Laerm;51449;51.676;5.812;2023-01-28T07:19:31;69.38;38.87;84.09;;
58251;Laerm;51449;51.676;5.812;2023-01-28T07:21:53;58.47;38.11;71.77;;
58251;Laerm;51449;51.676;5.812;2023-01-28T07:24:18;61.96;38.25;74.12;;
58251;Laerm;51449;51.676;5.812;2023-01-28T07:26:40;59.89;37.13;75.21;;
58251;Laerm;51449;51.676;5.812;2023-01-28T07:29:01;61.33;38.09;78.93;;
58251;Laerm;51449;51.676;5.812;2023-01-28T07:31:24;62.46;43.13;73.12;;
58251;Laerm;51449;51.676;5.812;2023-01-28T07:33:46;61.17;37.71;72.23;;
58251;Laerm;51449;51.676;5.812;2023-01-28T07:36:07;59.48;35.60;71.78;;
58251;Laerm;51449;51.676;5.812;2023-01-28T07:38:29;64.74;37.19;79.15;;
58251;Laerm;51449;51.676;5.812;2023-01-28T07:40:51;60.66;35.56;80.78;;
58251;Laerm;51449;51.676;5.812;2023-01-28T07:43:13;64.31;39.90;82.09;;
58251;Laerm;51449;51.676;5.812;2023-01-28T07:45:35;59.89;35.02;70.37;;
58251;Laerm;51449;51.676;5.812;2023-01-28T07:48:02;63.56;37.03;73.68;;
58251;Laerm;51449;51.676;5.812;2023-01-28T07:50:25;63.27;42.80;73.74;;
58251;Laerm;51449;51.676;5.812;2023-01-28T07:52:47;60.91;36.74;73.13;;
58251;Laerm;51449;51.676;5.812;2023-01-28T07:55:11;65.10;35.34;76.60;;
58251;Laerm;51449;51.676;5.812;2023-01-28T07:57:36;61.89;37.34;75.99;;
58251;Laerm;51449;51.676;5.812;2023-01-28T07:59:57;59.74;34.45;74.64;;
58251;Laerm;51449;51.676;5.812;2023-01-28T08:02:19;62.22;41.77;71.65;;
58251;Laerm;51449;51.676;5.812;2023-01-28T08:04:41;61.43;36.61;70.72;;
58251;Laerm;51449;51.676;5.812;2023-01-28T08:07:03;59.90;36.60;71.80;;
58251;Laerm;51449;51.676;5.812;2023-01-28T08:09:28;62.84;35.41;78.79;;
58251;Laerm;51449;51.676;5.812;2023-01-28T08:11:50;63.71;47.99;74.47;;
58251;Laerm;51449;51.676;5.812;2023-01-28T08:14:11;61.94;38.78;70.56;;
58251;Laerm;51449;51.676;5.812;2023-01-28T08:16:33;71.56;41.43;85.31;;
58251;Laerm;51449;51.676;5.812;2023-01-28T08:18:55;63.28;44.20;72.54;;
58251;Laerm;51449;51.676;5.812;2023-01-28T08:21:17;64.98;43.25;82.20;;
58251;Laerm;51449;51.676;5.812;2023-01-28T08:23:39;62.78;40.39;78.43;;
58251;Laerm;51449;51.676;5.812;2023-01-28T08:26:01;62.34;44.47;75.44;;
58251;Laerm;51449;51.676;5.812;2023-01-28T08:28:23;64.06;40.23;73.93;;
58251;Laerm;51449;51.676;5.812;2023-01-28T08:30:45;59.91;36.54;71.04;;
58251;Laerm;51449;51.676;5.812;2023-01-28T08:33:10;61.45;40.31;85.61;;
58251;Laerm;51449;51.676;5.812;2023-01-28T08:35:33;60.90;38.86;77.72;;
58251;Laerm;51449;51.676;5.812;2023-01-28T08:37:59;62.85;40.39;74.72;;
58251;Laerm;51449;51.676;5.812;2023-01-28T08:40:21;61.66;40.37;71.44;;
58251;Laerm;51449;51.676;5.812;2023-01-28T08:42:48;58.53;36.64;67.42;;
58251;Laerm;51449;51.676;5.812;2023-01-28T08:45:10;59.63;39.61;71.62;;
58251;Laerm;51449;51.676;5.812;2023-01-28T08:47:31;66.76;38.37;78.24;;
58251;Laerm;51449;51.676;5.812;2023-01-28T08:49:53;63.34;38.31;76.19;;
58251;Laerm;51449;51.676;5.812;2023-01-28T08:52:15;64.06;41.86;75.39;;
58251;Laerm;51449;51.676;5.812;2023-01-28T08:54:36;63.63;39.53;73.47;;
58251;Laerm;51449;51.676;5.812;2023-01-28T08:56:58;63.14;44.65;75.81;;
58251;Laerm;51449;51.676;5.812;2023-01-28T08:59:20;60.42;35.52;70.99;;
58251;Laerm;51449;51.676;5.812;2023-01-28T09:01:41;63.51;47.08;71.68;;
58251;Laerm;51449;51.676;5.812;2023-01-28T09:04:03;63.53;42.11;81.43;;
58251;Laerm;51449;51.676;5.812;2023-01-28T09:06:25;61.42;35.64;69.39;;
58251;Laerm;51449;51.676;5.812;2023-01-28T09:08:47;62.60;37.50;75.78;;
58251;Laerm;51449;51.676;5.812;2023-01-28T09:11:09;63.82;45.26;79.77;;
58251;Laerm;51449;51.676;5.812;2023-01-28T09:13:30;60.15;38.03;69.96;;
58251;Laerm;51449;51.676;5.812;2023-01-28T09:15:52;64.24;39.77;72.20;;
58251;Laerm;51449;51.676;5.812;2023-01-28T09:18:14;61.93;47.33;70.03;;
58251;Laerm;51449;51.676;5.812;2023-01-28T09:20:37;65.49;40.46;77.75;;
58251;Laerm;51449;51.676;5.812;2023-01-28T09:23:00;64.15;48.16;74.89;;
58251;Laerm;51449;51.676;5.812;2023-01-28T09:25:22;65.34;46.96;75.75;;
58251;Laerm;51449;51.676;5.812;2023-01-28T09:27:44;64.03;41.31;74.27;;
58251;Laerm;51449;51.676;5.812;2023-01-28T09:30:07;65.50;41.87;75.57;;
58251;Laerm;51449;51.676;5.812;2023-01-28T09:32:30;60.97;43.39;69.57;;
58251;Laerm;51449;51.676;5.812;2023-01-28T09:34:52;61.99;40.98;71.44;;
58251;Laerm;51449;51.676;5.812;2023-01-28T09:37:14;62.80;45.66;74.99;;
58251;Laerm;51449;51.676;5.812;2023-01-28T09:39:36;64.33;46.08;75.43;;
58251;Laerm;51449;51.676;5.812;2023-01-28T09:42:33;62.78;38.76;74.35;;
58251;Laerm;51449;51.676;5.812;2023-01-28T09:45:20;61.30;40.70;69.91;;
58251;Laerm;51449;51.676;5.812;2023-01-28T09:47:50;63.49;39.64;85.37;;
58251;Laerm;51449;51.676;5.812;2023-01-28T09:50:37;61.68;37.97;71.02;;
58251;Laerm;51449;51.676;5.812;2023-01-28T09:53:24;65.21;40.54;74.77;;
58251;Laerm;51449;51.676;5.812;2023-01-28T09:56:24;65.47;38.59;76.05;;
58251;Laerm;51449;51.676;5.812;2023-01-28T09:58:46;64.13;46.03;74.21;;
58251;Laerm;51449;51.676;5.812;2023-01-28T10:04:11;61.15;39.20;71.83;;
58251;Laerm;51449;51.676;5.812;2023-01-28T10:12:41;61.28;39.15;70.75;;
58251;Laerm;51449;51.676;5.812;2023-01-28T10:18:09;60.03;35.54;69.37;;
58251;Laerm;51449;51.676;5.812;2023-01-28T10:20:48;65.76;53.17;72.97;;
58251;Laerm;51449;51.676;5.812;2023-01-28T10:23:20;62.85;44.78;72.78;;
58251;Laerm;51449;51.676;5.812;2023-01-28T10:25:45;63.05;46.15;72.77;;
58251;Laerm;51449;51.676;5.812;2023-01-28T10:28:18;62.04;43.22;71.03;;
58251;Laerm;51449;51.676;5.812;2023-01-28T10:30:44;61.58;40.80;78.76;;
58251;Laerm;51449;51.676;5.812;2023-01-28T10:33:30;62.79;45.62;70.38;;
58251;Laerm;51449;51.676;5.812;2023-01-28T10:35:55;64.30;47.00;71.59;;
58251;Laerm;51449;51.676;5.812;2023-01-28T10:38:24;64.13;45.74;76.75;;
58251;Laerm;51449;51.676;5.812;2023-01-28T10:40:47;63.19;40.33;73.54;;
58251;Laerm;51449;51.676;5.812;2023-01-28T10:43:09;62.75;41.26;71.88;;
58251;Laerm;51449;51.676;5.812;2023-01-28T10:48:20;62.02;38.55;73.39;;
58251;Laerm;51449;51.676;5.812;2023-01-28T10:50:55;62.53;42.83;74.30;;
58251;Laerm;51449;51.676;5.812;2023-01-28T10:53:43;62.26;42.70;78.01;;
58251;Laerm;51449;51.676;5.812;2023-01-28T10:56:13;63.39;41.30;75.61;;
58251;Laerm;51449;51.676;5.812;2023-01-28T11:01:14;62.74;42.59;71.37;;
58251;Laerm;51449;51.676;5.812;2023-01-28T11:03:36;63.68;40.56;77.03;;
58251;Laerm;51449;51.676;5.812;2023-01-28T11:05:58;61.46;39.54;71.46;;
58251;Laerm;51449;51.676;5.812;2023-01-28T11:08:23;63.06;43.30;72.43;;
58251;Laerm;51449;51.676;5.812;2023-01-28T11:10:46;62.16;40.38;72.49;;
58251;Laerm;51449;51.676;5.812;2023-01-28T11:13:22;60.92;38.49;72.53;;
58251;Laerm;51449;51.676;5.812;2023-01-28T11:15:50;62.36;44.55;70.40;;
58251;Laerm;51449;51.676;5.812;2023-01-28T11:18:27;62.97;37.88;72.06;;
58251;Laerm;51449;51.676;5.812;2023-01-28T11:21:03;62.86;39.80;71.80;;
58251;Laerm;51449;51.676;5.812;2023-01-28T11:23:31;66.08;48.99;81.15;;
58251;Laerm;51449;51.676;5.812;2023-01-28T11:26:08;62.95;40.28;72.87;;
58251;Laerm;51449;51.676;5.812;2023-01-28T11:28:40;63.59;45.78;71.15;;
58251;Laerm;51449;51.676;5.812;2023-01-28T11:31:03;62.36;40.23;69.65;;
58251;Laerm;51449;51.676;5.812;2023-01-28T11:33:40;63.71;42.74;71.68;;
58251;Laerm;51449;51.676;5.812;2023-01-28T11:36:18;63.39;40.35;73.84;;
58251;Laerm;51449;51.676;5.812;2023-01-28T11:38:59;62.93;38.94;73.37;;
58251;Laerm;51449;51.676;5.812;2023-01-28T11:43:48;62.34;45.88;73.07;;
58251;Laerm;51449;51.676;5.812;2023-01-28T11:49:25;61.61;37.51;73.87;;
58251;Laerm;51449;51.676;5.812;2023-01-28T11:58:21;62.71;43.87;71.84;;
58251;Laerm;51449;51.676;5.812;2023-01-28T12:06:44;61.87;35.31;72.26;;
58251;Laerm;51449;51.676;5.812;2023-01-28T12:12:33;63.10;38.70;72.17;;
58251;Laerm;51449;51.676;5.812;2023-01-28T12:24:02;62.04;39.46;73.59;;
58251;Laerm;51449;51.676;5.812;2023-01-28T12:29:33;66.55;40.03;81.21;;
58251;Laerm;51449;51.676;5.812;2023-01-28T12:32:50;63.46;49.15;72.50;;
58251;Laerm;51449;51.676;5.812;2023-01-28T12:38:53;63.65;47.47;72.91;;
58251;Laerm;51449;51.676;5.812;2023-01-28T12:41:22;63.83;45.15;70.56;;
58251;Laerm;51449;51.676;5.812;2023-01-28T12:43:59;62.12;36.25;70.66;;
58251;Laerm;51449;51.676;5.812;2023-01-28T12:46:39;63.75;39.62;76.78;;
58251;Laerm;51449;51.676;5.812;2023-01-28T12:49:21;64.47;41.41;74.67;;
58251;Laerm;51449;51.676;5.812;2023-01-28T12:54:58;66.09;41.12;80.05;;
58251;Laerm;51449;51.676;5.812;2023-01-28T12:57:31;62.59;38.77;73.91;;
58251;Laerm;51449;51.676;5.812;2023-01-28T13:00:42;62.84;38.70;71.81;;
58251;Laerm;51449;51.676;5.812;2023-01-28T13:03:10;64.85;38.52;73.51;;
58251;Laerm;51449;51.676;5.812;2023-01-28T13:05:45;64.65;41.90;77.56;;
58251;Laerm;51449;51.676;5.812;2023-01-28T13:08:25;61.85;39.61;72.16;;
58251;Laerm;51449;51.676;5.812;2023-01-28T13:10:47;63.56;46.14;71.91;;
58251;Laerm;51449;51.676;5.812;2023-01-28T13:13:32;78.95;39.97;106.41;;
58251;Laerm;51449;51.676;5.812;2023-01-28T13:15:56;62.84;45.01;70.92;;
58251;Laerm;51449;51.676;5.812;2023-01-28T13:18:44;63.48;42.39;73.71;;
58251;Laerm;51449;51.676;5.812;2023-01-28T13:23:48;64.74;40.39;76.65;;
58251;Laerm;51449;51.676;5.812;2023-01-28T13:28:52;62.57;41.35;82.18;;
58251;Laerm;51449;51.676;5.812;2023-01-28T13:31:18;63.71;44.14;72.26;;
58251;Laerm;51449;51.676;5.812;2023-01-28T13:33:46;62.33;43.54;69.89;;
58251;Laerm;51449;51.676;5.812;2023-01-28T13:39:04;63.10;46.14;71.32;;
58251;Laerm;51449;51.676;5.812;2023-01-28T13:41:51;63.16;41.51;77.16;;
58251;Laerm;51449;51.676;5.812;2023-01-28T13:44:26;62.92;45.20;70.95;;
58251;Laerm;51449;51.676;5.812;2023-01-28T13:46:48;62.63;42.24;72.37;;
58251;Laerm;51449;51.676;5.812;2023-01-28T13:49:32;63.54;47.71;73.08;;
58251;Laerm;51449;51.676;5.812;2023-01-28T13:52:13;61.52;35.23;75.18;;
58251;Laerm;51449;51.676;5.812;2023-01-28T13:55:05;61.92;38.74;70.06;;
58251;Laerm;51449;51.676;5.812;2023-01-28T14:00:31;62.94;38.89;72.52;;
58251;Laerm;51449;51.676;5.812;2023-01-28T14:18:25;62.92;40.02;71.66;;
58251;Laerm;51449;51.676;5.812;2023-01-28T14:20:48;63.49;39.18;81.53;;
58251;Laerm;51449;51.676;5.812;2023-01-28T14:23:17;62.60;34.41;71.03;;
58251;Laerm;51449;51.676;5.812;2023-01-28T14:31:50;62.15;37.04;70.47;;
58251;Laerm;51449;51.676;5.812;2023-01-28T14:34:33;61.32;31.29;73.44;;
58251;Laerm;51449;51.676;5.812;2023-01-28T14:37:04;63.27;42.34;70.71;;
58251;Laerm;51449;51.676;5.812;2023-01-28T14:39:32;62.98;37.08;75.92;;
58251;Laerm;51449;51.676;5.812;2023-01-28T14:42:01;62.78;44.72;69.97;;
58251;Laerm;51449;51.676;5.812;2023-01-28T14:44:34;62.08;32.05;75.24;;
58251;Laerm;51449;51.676;5.812;2023-01-28T14:50:29;63.55;37.97;77.09;;
58251;Laerm;51449;51.676;5.812;2023-01-28T14:58:39;61.08;32.24;70.45;;
58251;Laerm;51449;51.676;5.812;2023-01-28T15:01:02;60.42;34.28;70.25;;
58251;Laerm;51449;51.676;5.812;2023-01-28T15:03:26;62.76;37.58;74.33;;
58251;Laerm;51449;51.676;5.812;2023-01-28T15:05:48;64.89;41.77;80.46;;
58251;Laerm;51449;51.676;5.812;2023-01-28T15:08:22;62.05;41.72;76.95;;
58251;Laerm;51449;51.676;5.812;2023-01-28T15:10:44;62.74;39.75;72.55;;
58251;Laerm;51449;51.676;5.812;2023-01-28T15:13:12;63.16;48.00;72.39;;
58251;Laerm;51449;51.676;5.812;2023-01-28T15:15:39;63.96;38.81;73.57;;
58251;Laerm;51449;51.676;5.812;2023-01-28T15:18:11;61.25;35.59;72.52;;
58251;Laerm;51449;51.676;5.812;2023-01-28T15:20:34;63.84;35.14;72.78;;
58251;Laerm;51449;51.676;5.812;2023-01-28T15:22:56;62.53;36.51;71.90;;
58251;Laerm;51449;51.676;5.812;2023-01-28T15:25:27;62.67;35.04;77.62;;
58251;Laerm;51449;51.676;5.812;2023-01-28T15:27:51;61.70;36.79;72.29;;
58251;Laerm;51449;51.676;5.812;2023-01-28T15:30:31;63.19;41.22;73.64;;
58251;Laerm;51449;51.676;5.812;2023-01-28T15:33:12;60.88;35.82;69.48;;
58251;Laerm;51449;51.676;5.812;2023-01-28T15:35:35;65.86;38.83;80.73;;
58251;Laerm;51449;51.676;5.812;2023-01-28T15:37:57;60.74;40.22;73.37;;
58251;Laerm;51449;51.676;5.812;2023-01-28T15:40:21;62.04;37.29;70.62;;
58251;Laerm;51449;51.676;5.812;2023-01-28T15:42:45;59.90;37.60;76.53;;
58251;Laerm;51449;51.676;5.812;2023-01-28T15:45:18;60.96;37.50;73.32;;
58251;Laerm;51449;51.676;5.812;2023-01-28T15:47:41;61.05;40.17;70.14;;
58251;Laerm;51449;51.676;5.812;2023-01-28T15:50:06;62.07;36.33;74.04;;
58251;Laerm;51449;51.676;5.812;2023-01-28T15:52:36;69.12;39.18;81.38;;
58251;Laerm;51449;51.676;5.812;2023-01-28T15:54:58;61.39;45.20;70.33;;
58251;Laerm;51449;51.676;5.812;2023-01-28T15:57:27;61.70;37.01;74.28;;
58251;Laerm;51449;51.676;5.812;2023-01-28T16:02:32;60.99;34.41;70.05;;
58251;Laerm;51449;51.676;5.812;2023-01-28T16:05:04;65.25;39.27;72.78;;
58251;Laerm;51449;51.676;5.812;2023-01-28T16:07:32;63.32;40.78;74.89;;
58251;Laerm;51449;51.676;5.812;2023-01-28T16:09:59;62.71;42.91;70.33;;
58251;Laerm;51449;51.676;5.812;2023-01-28T16:12:23;64.01;43.94;72.19;;
58251;Laerm;51449;51.676;5.812;2023-01-28T16:14:57;63.39;45.93;71.31;;
58251;Laerm;51449;51.676;5.812;2023-01-28T16:17:27;63.13;38.36;71.57;;
58251;Laerm;51449;51.676;5.812;2023-01-28T16:20:03;59.52;37.35;80.81;;
58251;Laerm;51449;51.676;5.812;2023-01-28T16:22:37;62.58;36.44;70.90;;
58251;Laerm;51449;51.676;5.812;2023-01-28T16:24:59;60.02;38.60;72.31;;
58251;Laerm;51449;51.676;5.812;2023-01-28T16:27:30;62.69;45.21;70.33;;
58251;Laerm;51449;51.676;5.812;2023-01-28T16:29:52;71.44;49.61;83.54;;
58251;Laerm;51449;51.676;5.812;2023-01-28T16:32:35;63.56;40.17;76.24;;
58251;Laerm;51449;51.676;5.812;2023-01-28T16:34:58;62.95;36.45;73.75;;
58251;Laerm;51449;51.676;5.812;2023-01-28T16:37:20;63.61;34.60;71.46;;
58251;Laerm;51449;51.676;5.812;2023-01-28T16:39:42;62.63;43.23;73.35;;
58251;Laerm;51449;51.676;5.812;2023-01-28T16:42:03;60.92;36.80;70.93;;
58251;Laerm;51449;51.676;5.812;2023-01-28T16:44:25;62.93;38.35;86.43;;
58251;Laerm;51449;51.676;5.812;2023-01-28T16:46:47;60.42;35.11;70.14;;
58251;Laerm;51449;51.676;5.812;2023-01-28T16:49:09;60.77;34.58;69.43;;
58251;Laerm;51449;51.676;5.812;2023-01-28T16:51:31;61.49;36.21;85.15;;
58251;Laerm;51449;51.676;5.812;2023-01-28T16:53:53;63.16;41.33;74.05;;
58251;Laerm;51449;51.676;5.812;2023-01-28T16:56:25;61.05;33.95;71.84;;
58251;Laerm;51449;51.676;5.812;2023-01-28T16:59:12;59.15;38.50;69.10;;
58251;Laerm;51449;51.676;5.812;2023-01-28T17:01:35;59.02;37.40;68.95;;
58251;Laerm;51449;51.676;5.812;2023-01-28T17:03:57;59.60;36.17;71.92;;
58251;Laerm;51449;51.676;5.812;2023-01-28T17:06:19;57.83;35.76;69.25;;
58251;Laerm;51449;51.676;5.812;2023-01-28T17:08:41;61.99;38.85;74.82;;
58251;Laerm;51449;51.676;5.812;2023-01-28T17:11:03;59.90;39.45;68.68;;
58251;Laerm;51449;51.676;5.812;2023-01-28T17:13:25;62.58;36.92;72.28;;
58251;Laerm;51449;51.676;5.812;2023-01-28T17:15:47;57.47;36.58;69.75;;
58251;Laerm;51449;51.676;5.812;2023-01-28T17:18:09;61.46;37.95;74.74;;
58251;Laerm;51449;51.676;5.812;2023-01-28T17:20:31;60.65;35.72;78.87;;
58251;Laerm;51449;51.676;5.812;2023-01-28T17:22:57;58.21;36.29;68.05;;
58251;Laerm;51449;51.676;5.812;2023-01-28T17:25:19;62.82;36.95;77.10;;
58251;Laerm;51449;51.676;5.812;2023-01-28T17:27:41;58.64;34.95;71.04;;
58251;Laerm;51449;51.676;5.812;2023-01-28T17:30:04;58.03;36.57;69.94;;
58251;Laerm;51449;51.676;5.812;2023-01-28T17:32:26;62.40;39.98;71.42;;
58251;Laerm;51449;51.676;5.812;2023-01-28T17:34:48;60.86;35.94;70.87;;
58251;Laerm;51449;51.676;5.812;2023-01-28T17:37:09;59.12;38.23;71.52;;
58251;Laerm;51449;51.676;5.812;2023-01-28T17:39:31;62.08;34.35;70.87;;
